Time;durP1;ratioP1;P1;durP2;ratioP2;P2;SDS_P1;SDS_P2;PMS_P1;PMS_P2;Temp;Humidity;BMP_temperature;BMP_pressure;BME280_temperature;BME280_humidity;BME280_pressure;Samples;Min_cycle;Max_cycle;Signal;HPM_P1;HPM_P2
2024/04/13 00:00:18;;;;;;;2.72;0.20;;;;;;;15.39;100.00;102651.97;5385560;26;20300;-79
2024/04/13 00:02:45;;;;;;;4.18;0.43;;;;;;;15.34;100.00;102646.22;5385121;26;20825;-79
2024/04/13 00:05:12;;;;;;;3.65;0.28;;;;;;;15.24;100.00;102642.97;5374017;26;20313;-80
2024/04/13 00:07:40;;;;;;;4.00;0.38;;;;;;;15.28;100.00;102630.63;5396954;26;20266;-79
2024/04/13 00:10:07;;;;;;;2.17;0.20;;;;;;;15.15;100.00;102646.84;5388540;26;20305;-79
2024/04/13 00:12:35;;;;;;;4.50;0.30;;;;;;;15.02;100.00;102652.19;5390181;26;20262;-79
2024/04/13 00:15:02;;;;;;;3.88;0.50;;;;;;;15.14;100.00;102646.00;5386209;26;21194;-80
2024/04/13 00:17:31;;;;;;;1.85;0.30;;;;;;;15.13;100.00;102627.09;5399056;26;20718;-79
2024/04/13 00:19:59;;;;;;;3.17;0.30;;;;;;;15.16;100.00;102622.13;5391861;26;20600;-79
2024/04/13 00:22:26;;;;;;;2.50;0.30;;;;;;;15.04;100.00;102622.81;5364557;26;20339;-79
2024/04/13 00:24:53;;;;;;;3.47;0.30;;;;;;;15.09;100.00;102621.19;5392746;26;20265;-80
2024/04/13 00:27:23;;;;;;;1.70;0.20;;;;;;;15.00;100.00;102621.50;5393047;26;20617;-79
2024/04/13 00:29:50;;;;;;;3.30;0.50;;;;;;;14.94;100.00;102605.94;5394150;26;20316;-79
2024/04/13 00:32:17;;;;;;;5.38;0.40;;;;;;;15.08;100.00;102613.22;5393018;26;20653;-79
2024/04/13 00:34:45;;;;;;;5.63;0.55;;;;;;;15.08;100.00;102602.28;5386551;26;20262;-79
2024/04/13 00:37:12;;;;;;;5.20;0.40;;;;;;;15.19;100.00;102604.50;5323990;26;20296;-79
2024/04/13 00:39:39;;;;;;;4.30;0.65;;;;;;;15.09;100.00;102595.78;5398171;26;20258;-80
2024/04/13 00:42:07;;;;;;;4.38;0.38;;;;;;;14.93;100.00;102577.81;5379324;26;20307;-78
2024/04/13 00:44:34;;;;;;;4.95;0.30;;;;;;;15.20;100.00;102592.56;5391294;26;20256;-79
2024/04/13 00:47:05;;;;;;;2.17;0.32;;;;;;;15.18;100.00;102598.19;5356575;26;20376;-80
2024/04/13 00:49:33;;;;;;;3.15;0.30;;;;;;;15.07;100.00;102589.72;5387459;26;20721;-79
2024/04/13 00:52:01;;;;;;;6.90;0.35;;;;;;;15.06;100.00;102607.13;5385738;26;20305;-79
2024/04/13 00:54:31;;;;;;;5.50;0.50;;;;;;;15.03;100.00;102582.94;5390598;26;20584;-80
2024/04/13 00:56:59;;;;;;;4.13;0.43;;;;;;;14.91;100.00;102568.16;5374278;26;20683;-79
2024/04/13 00:59:26;;;;;;;2.88;0.45;;;;;;;14.90;100.00;102577.38;5390831;26;20784;-79
2024/04/13 01:01:56;;;;;;;4.80;0.40;;;;;;;15.01;100.00;102582.28;5381300;26;20730;-79
2024/04/13 01:04:23;;;;;;;2.83;0.65;;;;;;;14.91;100.00;102581.78;5386096;26;20300;-79
2024/04/13 01:06:52;;;;;;;6.38;0.52;;;;;;;14.80;100.00;102564.88;5389320;26;20264;-79
2024/04/13 01:09:23;;;;;;;6.25;0.40;;;;;;;14.90;100.00;102574.66;5386751;26;20296;-79
2024/04/13 01:11:50;;;;;;;4.38;0.38;;;;;;;14.97;100.00;102561.91;5395850;26;20315;-79
2024/04/13 01:14:18;;;;;;;4.93;0.30;;;;;;;15.01;100.00;102563.19;5397079;26;20269;-79
2024/04/13 01:16:45;;;;;;;4.38;0.50;;;;;;;14.88;100.00;102575.66;5404339;26;20766;-78
2024/04/13 01:19:12;;;;;;;4.15;0.40;;;;;;;14.90;100.00;102567.28;5400999;26;21176;-79
2024/04/13 01:21:41;;;;;;;3.45;0.30;;;;;;;14.94;100.00;102578.66;5397555;26;20260;-79
2024/04/13 01:24:08;;;;;;;4.72;0.40;;;;;;;14.96;100.00;102577.44;5382851;26;20304;-78
2024/04/13 01:26:40;;;;;;;4.07;0.52;;;;;;;14.83;100.00;102558.19;5401141;26;20262;-80
2024/04/13 01:29:08;;;;;;;5.20;0.50;;;;;;;14.91;100.00;102565.41;5396573;26;20261;-79
2024/04/13 01:31:37;;;;;;;2.70;0.30;;;;;;;14.90;100.00;102552.84;5392550;26;20262;-79
2024/04/13 01:34:05;;;;;;;6.53;0.47;;;;;;;14.80;100.00;102562.16;5385471;26;20325;-79
2024/04/13 01:36:40;;;;;;;7.13;0.47;;;;;;;14.96;100.00;102565.66;5399474;26;20257;-79
2024/04/13 01:39:12;;;;;;;5.70;0.47;;;;;;;14.88;100.00;102563.94;5383889;26;20276;-79
2024/04/13 01:42:06;;;;;;;3.83;0.68;;;;;;;14.59;100.00;102526.72;5392209;26;20277;-80
2024/04/13 01:44:33;;;;;;;4.22;0.40;;;;;;;14.93;100.00;102560.59;5391766;26;21912;-80
2024/04/13 01:47:01;;;;;;;2.92;0.28;;;;;;;14.95;100.00;102564.00;5397969;26;20339;-79
2024/04/13 01:49:28;;;;;;;2.78;0.30;;;;;;;14.90;100.00;102577.38;5337781;26;20257;-80
2024/04/13 01:51:56;;;;;;;9.82;0.60;;;;;;;14.76;100.00;102577.22;5389420;26;20313;-79
2024/04/13 01:54:23;;;;;;;5.90;0.30;;;;;;;14.82;100.00;102576.44;5354091;26;20784;-80
2024/04/13 01:56:51;;;;;;;6.72;0.57;;;;;;;14.93;100.00;102572.38;5382199;26;20289;-79
2024/04/13 01:59:18;;;;;;;6.28;0.40;;;;;;;14.90;100.00;102566.47;5388050;26;20301;-77
2024/04/13 02:01:46;;;;;;;3.78;0.30;;;;;;;14.83;100.00;102556.31;5380942;26;20900;-79
2024/04/13 02:04:13;;;;;;;6.18;0.38;;;;;;;14.78;100.00;102582.47;5395107;26;20343;-78
2024/04/13 02:06:41;;;;;;;1.45;0.30;;;;;;;14.88;100.00;102583.84;5391892;26;20273;-78
2024/04/13 02:09:11;;;;;;;3.47;0.30;;;;;;;14.80;100.00;102575.78;5383577;26;20778;-79
2024/04/13 02:11:38;;;;;;;3.40;0.30;;;;;;;14.86;100.00;102576.91;5392219;26;20257;-79
2024/04/13 02:14:06;;;;;;;3.10;0.30;;;;;;;14.83;100.00;102580.84;5390144;26;20719;-79
2024/04/13 02:16:33;;;;;;;3.17;0.30;;;;;;;14.90;100.00;102577.38;5385376;26;20262;-79
2024/04/13 02:19:00;;;;;;;5.32;0.35;;;;;;;14.65;100.00;102566.84;5371165;26;20862;-78
2024/04/13 02:21:27;;;;;;;4.10;0.40;;;;;;;14.75;100.00;102585.56;5395648;26;20257;-78
2024/04/13 02:23:55;;;;;;;4.65;0.40;;;;;;;14.82;100.00;102593.84;5392004;26;20272;-78
2024/04/13 02:26:22;;;;;;;4.30;0.40;;;;;;;14.69;100.00;102570.88;5398360;26;20628;-78
2024/04/13 02:28:49;;;;;;;5.18;0.32;;;;;;;14.77;100.00;102595.28;5404989;26;20257;-78
2024/04/13 02:31:17;;;;;;;4.47;0.40;;;;;;;14.66;100.00;102593.06;5394256;26;20372;-78
2024/04/13 02:33:44;;;;;;;4.35;0.47;;;;;;;14.57;100.00;102568.81;5391049;26;20718;-79
2024/04/13 02:36:11;;;;;;;3.20;0.40;;;;;;;14.61;100.00;102578.31;5394317;26;20288;-78
2024/04/13 02:38:39;;;;;;;3.83;0.40;;;;;;;14.55;100.00;102571.72;5400431;26;21019;-79
2024/04/13 02:41:06;;;;;;;2.95;0.50;;;;;;;14.58;100.00;102567.78;5395790;26;20590;-78
2024/04/13 02:43:38;;;;;;;4.20;0.38;;;;;;;14.62;100.00;102569.09;5369919;26;20261;-78
2024/04/13 02:46:08;;;;;;;3.47;0.55;;;;;;;14.68;100.00;102577.34;5398726;26;20261;-79
2024/04/13 02:48:38;;;;;;;5.28;0.40;;;;;;;14.59;100.00;102558.59;5388839;26;20265;-79
2024/04/13 02:51:06;;;;;;;6.32;0.57;;;;;;;14.65;100.00;102564.13;5396182;26;20747;-79
2024/04/13 02:53:34;;;;;;;7.90;0.70;;;;;;;14.61;100.00;102559.22;5390434;26;20330;-79
2024/04/13 02:56:05;;;;;;;5.72;0.60;;;;;;;14.50;100.00;102543.38;5394449;26;20299;-79
2024/04/13 02:58:33;;;;;;;5.65;0.50;;;;;;;14.59;100.00;102570.31;5388268;26;20717;-78
2024/04/13 03:01:02;;;;;;;6.18;0.60;;;;;;;14.52;100.00;102547.59;5388179;26;20374;-79
2024/04/13 03:03:30;;;;;;;6.55;0.40;;;;;;;14.76;100.00;102571.75;5400253;26;20307;-78
2024/04/13 03:05:59;;;;;;;3.78;0.43;;;;;;;14.66;100.00;102576.69;5391028;26;20725;-79
2024/04/13 03:08:26;;;;;;;4.75;0.63;;;;;;;14.57;100.00;102545.16;5382197;26;20269;-79
2024/04/13 03:10:55;;;;;;;3.42;0.77;;;;;;;14.72;100.00;102572.34;5345433;26;20262;-78
2024/04/13 03:13:22;;;;;;;4.47;0.57;;;;;;;14.59;100.00;102558.59;5398380;26;20351;-79
2024/04/13 03:16:04;;;;;;;3.50;0.40;;;;;;;14.57;100.00;102544.28;5383660;26;20796;-79
2024/04/13 03:18:32;;;;;;;4.38;0.50;;;;;;;14.62;100.00;102545.41;5388476;26;20722;-78
2024/04/13 03:21:00;;;;;;;6.15;0.50;;;;;;;14.73;100.00;102549.50;5394784;26;20269;-78
2024/04/13 03:23:32;;;;;;;3.65;0.40;;;;;;;14.72;100.00;102547.81;5377779;26;20257;-78
2024/04/13 03:25:59;;;;;;;5.05;0.40;;;;;;;14.60;100.00;102525.66;5383658;26;20269;-79
2024/04/13 03:28:31;;;;;;;2.33;0.40;;;;;;;14.79;100.00;102554.16;5362619;26;20715;-78
2024/04/13 03:30:58;;;;;;;5.50;0.88;;;;;;;14.75;100.00;102539.22;5395270;26;20281;-79
2024/04/13 03:33:26;;;;;;;4.22;0.30;;;;;;;14.66;100.00;102533.09;5377311;26;20794;-79
2024/04/13 03:35:58;;;;;;;0.63;0.30;;;;;;;14.67;100.00;102533.94;5391826;26;20346;-79
2024/04/13 03:38:26;;;;;;;5.63;0.30;;;;;;;14.60;100.00;102528.38;5382015;26;20262;-78
2024/04/13 03:41:07;;;;;;;5.57;0.32;;;;;;;14.65;100.00;102531.41;5390450;26;20866;-78
2024/04/13 03:43:36;;;;;;;2.88;0.50;;;;;;;14.68;100.00;102531.00;5354883;26;20274;-79
2024/04/13 03:46:05;;;;;;;5.68;0.32;;;;;;;14.58;100.00;102514.13;5387573;26;20269;-78
2024/04/13 03:48:32;;;;;;;3.10;0.25;;;;;;;14.52;100.00;102498.53;5389310;26;20324;-79
2024/04/13 03:51:03;;;;;;;2.78;0.30;;;;;;;14.65;100.00;102531.41;5388229;26;20733;-79
2024/04/13 03:53:31;;;;;;;1.65;0.40;;;;;;;14.31;100.00;102478.63;5386197;26;20357;-79
2024/04/13 03:55:59;;;;;;;2.60;0.35;;;;;;;14.66;100.00;102533.09;5386802;26;20262;-78
2024/04/13 03:58:26;;;;;;;2.13;0.30;;;;;;;14.44;100.00;102501.38;5398883;26;20295;-79
2024/04/13 04:00:53;;;;;;;2.53;0.25;;;;;;;14.62;100.00;102514.56;5366227;26;20269;-78
2024/04/13 04:03:20;;;;;;;3.95;0.47;;;;;;;14.71;100.00;102516.97;5393457;26;20313;-78
2024/04/13 04:05:54;;;;;;;3.92;0.40;;;;;;;14.54;100.00;102501.94;5395106;26;20339;-79
2024/04/13 04:08:21;;;;;;;5.15;0.47;;;;;;;14.67;100.00;102510.22;5392074;26;20269;-79
2024/04/13 04:10:48;;;;;;;2.35;0.30;;;;;;;14.72;100.00;102532.28;5391973;26;20304;-79
2024/04/13 04:13:15;;;;;;;2.55;0.43;;;;;;;14.72;100.00;102526.00;5387747;26;20266;-79
2024/04/13 04:15:43;;;;;;;3.50;0.40;;;;;;;14.76;100.00;102522.69;5384710;26;20611;-78
2024/04/13 04:18:11;;;;;;;3.40;0.38;;;;;;;14.83;100.00;102518.16;5385941;26;20313;-78
2024/04/13 04:20:39;;;;;;;3.10;0.25;;;;;;;14.75;100.00;102514.69;5381980;26;20278;-78
2024/04/13 04:23:06;;;;;;;3.20;0.38;;;;;;;14.74;100.00;102508.44;5395235;26;20333;-79
2024/04/13 04:25:34;;;;;;;6.25;0.60;;;;;;;14.75;100.00;102515.56;5395447;26;20276;-78
2024/04/13 04:28:01;;;;;;;4.32;0.40;;;;;;;14.71;100.00;102514.25;5398508;26;20262;-79
2024/04/13 04:30:28;;;;;;;2.67;0.30;;;;;;;14.74;100.00;102513.88;5395683;26;20666;-78
2024/04/13 04:32:56;;;;;;;2.72;0.30;;;;;;;14.74;100.00;102505.69;5404611;26;20295;-79
2024/04/13 04:35:23;;;;;;;6.55;0.43;;;;;;;14.72;100.00;102502.31;5393010;26;20375;-79
2024/04/13 04:37:50;;;;;;;5.22;0.47;;;;;;;14.70;100.00;102498.09;5403159;26;20264;-80
2024/04/13 04:40:17;;;;;;;2.45;0.47;;;;;;;14.85;100.00;102517.97;5389881;26;20262;-78
2024/04/13 04:42:45;;;;;;;1.95;0.30;;;;;;;14.77;100.00;102499.88;5385976;26;20261;-79
2024/04/13 04:45:12;;;;;;;3.83;0.20;;;;;;;14.76;100.00;102519.97;5396558;26;20305;-79
2024/04/13 04:47:40;;;;;;;1.38;0.40;;;;;;;14.66;100.00;102485.88;5396769;26;20315;-79
2024/04/13 04:50:07;;;;;;;5.50;0.30;;;;;;;14.78;100.00;102493.38;5388955;26;20308;-79
2024/04/13 04:52:35;;;;;;;4.43;0.40;;;;;;;14.10;100.00;102354.13;5376383;26;20372;-79
2024/04/13 04:55:04;;;;;;;4.72;0.73;;;;;;;14.91;100.00;102498.06;5390509;26;20258;-79
2024/04/13 04:57:31;;;;;;;2.17;0.30;;;;;;;14.94;100.00;102492.25;5398636;26;20619;-79
2024/04/13 04:59:59;;;;;;;2.05;0.32;;;;;;;14.92;100.00;102488.88;5388521;26;20636;-80
2024/04/13 05:02:26;;;;;;;1.65;0.30;;;;;;;15.02;100.00;102500.28;5394869;26;20714;-79
2024/04/13 05:04:55;;;;;;;1.90;0.30;;;;;;;14.91;100.00;102480.91;5391966;26;20387;-79
2024/04/13 05:07:22;;;;;;;3.28;0.30;;;;;;;14.90;100.00;102487.41;5388108;26;20266;-79
2024/04/13 05:09:49;;;;;;;4.35;0.40;;;;;;;14.75;100.00;102461.03;5389066;26;20379;-79
2024/04/13 05:12:17;;;;;;;4.00;0.60;;;;;;;14.88;100.00;102500.38;5392505;26;20265;-79
2024/04/13 05:14:44;;;;;;;1.65;0.30;;;;;;;14.81;100.00;102503.03;5355456;26;20258;-79
2024/04/13 05:17:13;;;;;;;1.02;0.32;;;;;;;14.82;100.00;102490.25;5375075;26;20266;-79
2024/04/13 05:19:40;;;;;;;3.38;0.40;;;;;;;14.92;100.00;102490.75;5391552;26;20312;-79
2024/04/13 05:22:08;;;;;;;1.85;0.40;;;;;;;14.99;100.00;102480.75;5381993;26;20772;-79
2024/04/13 05:24:37;;;;;;;4.70;0.50;;;;;;;15.05;100.00;102501.75;5383735;26;20297;-79
2024/04/13 05:27:06;;;;;;;3.67;0.38;;;;;;;15.06;100.00;102490.66;5397239;26;20268;-79
2024/04/13 05:29:35;;;;;;;2.05;0.57;;;;;;;14.94;100.00;102464.97;5397577;26;20782;-79
2024/04/13 05:32:06;;;;;;;1.77;0.30;;;;;;;15.19;100.00;102495.41;5398618;26;20307;-79
2024/04/13 05:34:33;;;;;;;1.85;0.30;;;;;;;15.27;100.00;102507.00;5379799;26;20693;-79
2024/04/13 05:37:00;;;;;;;4.90;0.40;;;;;;;15.33;100.00;102511.66;5358126;26;20264;-80
2024/04/13 05:39:29;;;;;;;1.88;0.20;;;;;;;15.49;100.00;102505.09;5386893;26;20307;-80
2024/04/13 05:41:57;;;;;;;3.00;0.40;;;;;;;15.46;100.00;102516.38;5391908;26;20273;-80
2024/04/13 05:44:24;;;;;;;1.52;0.30;;;;;;;15.46;100.00;102517.25;5366408;26;20265;-79
2024/04/13 05:46:51;;;;;;;2.22;0.40;;;;;;;15.55;100.00;102507.03;5364242;26;20319;-80
2024/04/13 05:49:19;;;;;;;3.22;0.40;;;;;;;15.59;100.00;102513.78;5394321;26;20274;-80
2024/04/13 05:51:48;;;;;;;2.10;0.30;;;;;;;15.55;100.00;102507.03;5397180;26;20273;-80
2024/04/13 05:54:15;;;;;;;1.17;0.30;;;;;;;15.62;100.00;102518.81;5383752;26;20274;-79
2024/04/13 05:56:43;;;;;;;3.50;0.30;;;;;;;15.71;100.00;102512.16;5381567;26;20759;-80
2024/04/13 05:59:10;;;;;;;1.30;0.40;;;;;;;15.55;100.00;102491.47;5398979;26;20257;-80
2024/04/13 06:01:38;;;;;;;2.78;0.20;;;;;;;15.84;100.00;102524.00;5388026;26;20291;-80
2024/04/13 06:04:05;;;;;;;1.67;0.40;;;;;;;15.79;100.00;102512.00;5398485;26;20324;-80
2024/04/13 06:06:33;;;;;;;0.22;0.20;;;;;;;16.00;100.00;102525.56;5393671;26;20269;-79
2024/04/13 06:09:00;;;;;;;1.73;0.20;;;;;;;16.00;100.00;102517.38;5374920;26;20643;-80
2024/04/13 06:11:27;;;;;;;4.00;0.30;;;;;;;15.83;100.00;102502.38;5386183;26;20347;-80
2024/04/13 06:13:55;;;;;;;2.47;0.30;;;;;;;16.17;100.00;102526.88;5386891;26;20667;-80
2024/04/13 06:16:22;;;;;;;6.72;0.30;;;;;;;16.18;100.00;102517.66;5385793;26;20254;-80
2024/04/13 06:18:49;;;;;;;2.20;0.25;;;;;;;16.35;100.00;102516.25;5393956;26;20261;-80
2024/04/13 06:21:16;;;;;;;1.42;0.20;;;;;;;16.33;100.00;102501.94;5386491;26;20269;-80
2024/04/13 06:23:44;;;;;;;3.90;0.47;;;;;;;16.46;100.00;102519.25;5382716;26;20797;-80
2024/04/13 06:26:11;;;;;;;1.02;0.30;;;;;;;16.29;100.00;102498.78;5389586;26;20299;-79
2024/04/13 06:28:39;;;;;;;3.38;0.40;;;;;;;16.36;100.00;102517.94;5392095;26;20367;-80
2024/04/13 06:31:06;;;;;;;2.83;0.30;;;;;;;16.44;100.00;102526.81;5392020;26;20881;-79
2024/04/13 06:33:34;;;;;;;4.85;0.60;;;;;;;16.39;100.00;102515.63;5398394;26;20261;-79
2024/04/13 06:36:01;;;;;;;4.13;0.30;;;;;;;16.36;100.00;102528.88;5383928;26;20321;-80
2024/04/13 06:38:29;;;;;;;3.22;0.30;;;;;;;16.50;100.00;102536.09;5379182;26;20258;-79
2024/04/13 06:40:57;;;;;;;2.03;0.30;;;;;;;16.58;100.00;102523.09;5381571;26;20266;-80
2024/04/13 06:43:24;;;;;;;2.58;0.30;;;;;;;16.59;100.00;102532.13;5397958;26;20261;-79
2024/04/13 06:45:52;;;;;;;2.00;0.20;;;;;;;16.58;100.00;102522.22;5383033;26;20360;-79
2024/04/13 06:48:19;;;;;;;2.38;0.38;;;;;;;16.79;100.00;102533.00;5390483;26;20296;-79
2024/04/13 06:50:46;;;;;;;2.70;0.40;;;;;;;16.95;100.00;102536.19;5384102;26;20270;-80
2024/04/13 06:53:14;;;;;;;4.30;0.38;;;;;;;16.92;100.00;102524.84;5398607;26;20308;-79
2024/04/13 06:55:41;;;;;;;1.25;0.20;;;;;;;16.96;100.00;102517.91;5384635;26;20705;-79
2024/04/13 06:58:09;;;;;;;1.35;0.30;;;;;;;17.04;100.00;102498.53;5384507;26;20288;-80
2024/04/13 07:00:36;;;;;;;3.40;0.20;;;;;;;17.01;100.00;102486.13;5393746;26;20764;-80
2024/04/13 07:03:04;;;;;;;1.10;0.30;;;;;;;17.24;100.00;102513.06;5400680;26;20850;-80
2024/04/13 07:05:31;;;;;;;0.98;0.25;;;;;;;17.40;100.00;102515.38;5384668;26;20731;-79
2024/04/13 07:07:58;;;;;;;1.88;0.30;;;;;;;17.56;100.00;102518.50;5383571;26;20281;-80
2024/04/13 07:10:26;;;;;;;3.20;0.30;;;;;;;17.56;100.00;102524.00;5382318;26;20712;-80
2024/04/13 07:12:53;;;;;;;1.20;0.20;;;;;;;17.73;100.00;102518.91;5390030;26;20265;-80
2024/04/13 07:15:20;;;;;;;2.17;0.20;;;;;;;17.81;100.00;102518.69;5381172;26;20303;-80
2024/04/13 07:17:48;;;;;;;1.27;0.20;;;;;;;17.87;100.00;102498.63;5376623;26;20308;-79
2024/04/13 07:20:17;;;;;;;2.88;0.20;;;;;;;18.22;100.00;102519.16;5380459;26;20258;-78
2024/04/13 07:22:45;;;;;;;3.40;0.35;;;;;;;18.41;100.00;102515.53;5363384;26;20258;-79
2024/04/13 07:25:12;;;;;;;1.77;0.20;;;;;;;18.52;100.00;102496.47;5389934;26;20624;-79
2024/04/13 07:27:39;;;;;;;0.70;0.20;;;;;;;18.96;100.00;102512.00;5330883;26;21139;-79
2024/04/13 07:30:07;;;;;;;0.68;0.20;;;;;;;18.89;100.00;102492.00;5382882;26;20647;-80
2024/04/13 07:32:35;;;;;;;0.77;0.17;;;;;;;19.49;100.00;102496.75;5370437;26;20779;-80
2024/04/13 07:35:03;;;;;;;1.73;0.20;;;;;;;19.51;100.00;102502.03;5404420;26;20832;-80
2024/04/13 07:37:31;;;;;;;1.33;0.20;;;;;;;19.58;100.00;102505.56;5404592;26;20257;-80
2024/04/13 07:39:58;;;;;;;0.70;0.20;;;;;;;19.73;100.00;102489.56;5385165;26;20371;-80
2024/04/13 07:42:26;;;;;;;2.10;0.22;;;;;;;19.49;100.00;102473.97;5380843;26;20300;-80
2024/04/13 07:44:54;;;;;;;1.05;0.10;;;;;;;19.90;100.00;102490.63;5399418;26;20823;-80
2024/04/13 07:47:21;;;;;;;1.35;0.15;;;;;;;19.68;100.00;102492.16;5392886;26;20269;-80
2024/04/13 07:49:49;;;;;;;1.30;0.10;;;;;;;20.24;100.00;102501.00;5389624;26;20264;-79
2024/04/13 07:52:16;;;;;;;3.55;0.30;;;;;;;19.87;100.00;102486.44;5391545;26;20740;-79
2024/04/13 07:54:45;;;;;;;0.68;0.20;;;;;;;19.89;100.00;102488.97;5367648;26;20737;-80
2024/04/13 07:57:12;;;;;;;2.38;0.30;;;;;;;19.55;100.00;102493.13;5391934;26;20316;-79
2024/04/13 07:59:40;;;;;;;2.03;0.15;;;;;;;20.05;100.00;102491.91;5387330;26;20277;-80
2024/04/13 08:02:08;;;;;;;1.08;0.25;;;;;;;20.58;100.00;102479.13;5382622;26;20281;-80
2024/04/13 08:04:35;;;;;;;1.23;0.30;;;;;;;20.55;100.00;102468.63;5392749;26;20261;-80
2024/04/13 08:07:07;;;;;;;2.03;0.20;;;;;;;20.62;100.00;102483.09;5385104;26;20620;-80
2024/04/13 08:09:39;;;;;;;0.77;0.10;;;;;;;20.82;100.00;102483.63;5330762;26;20269;-80
2024/04/13 08:12:10;;;;;;;1.27;0.10;;;;;;;21.00;100.00;102483.59;5394334;26;20801;-80
2024/04/13 08:14:37;;;;;;;0.40;0.10;;;;;;;21.58;100.00;102481.69;5376752;26;20269;-80
2024/04/13 08:17:06;;;;;;;5.00;3.35;;;;;;;21.35;100.00;102476.22;5377992;26;20265;-80
2024/04/13 08:19:33;;;;;;;1.73;0.90;;;;;;;20.92;100.00;102466.56;5399343;26;20489;-80
2024/04/13 08:22:00;;;;;;;0.38;0.30;;;;;;;21.09;100.00;102454.63;5374791;26;20299;-80
2024/04/13 08:24:28;;;;;;;1.65;0.20;;;;;;;21.16;100.00;102469.13;5375141;26;20618;-80
2024/04/13 08:26:55;;;;;;;5.30;2.67;;;;;;;21.07;100.00;102465.06;5391440;26;20258;-80
2024/04/13 08:29:22;;;;;;;6.60;4.95;;;;;;;21.26;100.00;102474.88;5371941;26;20357;-81
2024/04/13 08:31:50;;;;;;;1.67;0.45;;;;;;;20.96;100.00;102463.13;5397968;26;20253;-80
2024/04/13 08:34:18;;;;;;;1.92;0.38;;;;;;;21.82;100.00;102479.81;5385966;26;20277;-80
2024/04/13 08:36:45;;;;;;;2.55;2.35;;;;;;;22.53;100.00;102483.78;5403106;26;20307;-80
2024/04/13 08:39:13;;;;;;;1.50;0.30;;;;;;;22.29;100.00;102448.22;5401966;26;20373;-80
2024/04/13 08:42:10;;;;;;;1.65;0.20;;;;;;;22.19;100.00;102465.41;5378265;26;20322;-80
2024/04/13 08:44:38;;;;;;;2.25;0.22;;;;;;;22.79;100.00;102472.13;5412754;26;20260;-80
2024/04/13 08:47:07;;;;;;;1.15;0.20;;;;;;;22.73;100.00;102461.22;5390321;26;20677;-80
2024/04/13 08:49:36;;;;;;;0.65;0.20;;;;;;;23.29;100.00;102456.41;5391179;26;20266;-80
2024/04/13 08:52:07;;;;;;;2.03;0.20;;;;;;;22.93;100.00;102433.97;5392223;26;20313;-80
2024/04/13 08:54:35;;;;;;;1.17;0.20;;;;;;;23.20;100.00;102451.56;5380331;26;20281;-80
2024/04/13 08:57:06;;;;;;;0.80;0.30;;;;;;;22.27;100.00;102453.97;5380008;26;20265;-79
2024/04/13 08:59:34;;;;;;;0.80;0.30;;;;;;;21.84;100.00;102452.81;5397059;26;20288;-80
2024/04/13 09:02:02;;;;;;;1.38;0.20;;;;;;;22.23;100.00;102433.47;5384123;26;20355;-80
2024/04/13 09:04:31;;;;;;;1.48;0.20;;;;;;;22.17;100.00;102431.72;5400237;26;20257;-80
2024/04/13 09:07:00;;;;;;;0.45;0.22;;;;;;;22.37;100.00;102451.44;5392553;26;20649;-80
2024/04/13 09:09:27;;;;;;;0.90;0.20;;;;;;;22.91;100.00;102449.97;5388323;26;20595;-80
2024/04/13 09:11:55;;;;;;;2.17;0.30;;;;;;;22.66;100.00;102439.31;5397798;26;20629;-80
2024/04/13 09:14:23;;;;;;;1.17;0.30;;;;;;;23.16;100.00;102440.13;5390590;26;20282;-80
2024/04/13 09:16:50;;;;;;;0.80;0.30;;;;;;;22.53;100.00;102417.53;5381164;26;20262;-80
2024/04/13 09:19:20;;;;;;;0.70;0.25;;;;;;;22.45;100.00;102428.94;5393809;26;20369;-80
2024/04/13 09:21:48;;;;;;;0.30;0.30;;;;;;;22.41;100.00;102393.81;5388157;26;20305;-80
2024/04/13 09:24:15;;;;;;;1.08;0.30;;;;;;;22.75;100.00;102414.88;5400165;26;20262;-80
2024/04/13 09:26:44;;;;;;;0.45;0.20;;;;;;;23.16;100.00;102400.63;5403396;26;20300;-80
2024/04/13 09:29:13;;;;;;;2.63;0.40;;;;;;;23.71;100.00;102431.84;5394849;26;20262;-80
2024/04/13 09:31:40;;;;;;;1.85;0.30;;;;;;;23.24;100.00;102436.16;5403675;26;20295;-81
2024/04/13 09:34:16;;;;;;;1.50;0.30;;;;;;;22.97;100.00;102386.25;5397698;26;20268;-80
2024/04/13 09:36:43;;;;;;;0.30;0.22;;;;;;;23.23;100.00;102407.66;5391446;26;21239;-80
2024/04/13 09:39:21;;;;;;;2.03;0.20;;;;;;;23.99;100.00;102412.31;5393247;26;20265;-80
2024/04/13 09:41:49;;;;;;;2.38;0.50;;;;;;;23.79;100.00;102422.28;5396052;26;20346;-80
2024/04/13 09:44:27;;;;;;;1.88;0.40;;;;;;;24.20;100.00;102396.78;5384870;26;20272;-80
2024/04/13 09:46:55;;;;;;;1.27;0.43;;;;;;;23.89;100.00;102430.69;5386117;26;20265;-80
2024/04/13 09:49:23;;;;;;;0.70;0.30;;;;;;;23.31;100.00;102387.88;5392858;26;20913;-80
2024/04/13 09:51:50;;;;;;;1.27;0.40;;;;;;;23.69;100.00;102422.13;5379479;26;20359;-80
2024/04/13 09:54:18;;;;;;;2.60;0.50;;;;;;;24.26;100.00;102428.97;5399912;26;20823;-80
2024/04/13 09:56:46;;;;;;;2.17;0.52;;;;;;;24.44;100.00;102403.66;5384814;26;20307;-80
2024/04/13 09:59:20;;;;;;;0.82;0.50;;;;;;;24.84;100.00;102423.47;5385094;26;20314;-79
2024/04/13 10:01:48;;;;;;;0.77;0.30;;;;;;;24.34;100.00;102418.25;5387388;26;20259;-81
2024/04/13 10:04:15;;;;;;;3.85;0.68;;;;;;;24.51;100.00;102407.06;5391627;26;20343;-79
2024/04/13 10:06:47;;;;;;;2.00;0.70;;;;;;;24.13;100.00;102402.53;5363451;26;20337;-80
2024/04/13 10:09:18;;;;;;;1.20;0.60;;;;;;;24.05;100.00;102411.28;5386847;26;20359;-80
2024/04/13 10:11:50;;;;;;;1.98;0.63;;;;;;;24.52;100.00;102381.03;5391730;26;20265;-80
2024/04/13 10:14:21;;;;;;;1.77;0.60;;;;;;;24.84;100.00;102404.91;5394559;26;20264;-79
2024/04/13 10:16:50;;;;;;;1.17;0.70;;;;;;;24.84;100.00;102415.16;5376113;26;20690;-81
2024/04/13 10:19:18;;;;;;;1.15;0.55;;;;;;;24.95;100.00;102406.66;5386186;26;20311;-81
2024/04/13 10:21:56;;;;;;;1.35;0.70;;;;;;;25.00;100.00;102405.84;5390434;26;20260;-81
2024/04/13 10:24:24;;;;;;;3.25;0.60;;;;;;;24.67;100.00;102386.75;5387037;26;20260;-81
2024/04/13 10:26:51;;;;;;;3.35;0.98;;;;;;;24.19;100.00;102395.13;5395137;26;20256;-81
2024/04/13 10:29:28;;;;;;;1.45;1.05;;;;;;;24.33;100.00;102390.81;5385184;26;20298;-81
2024/04/13 10:31:55;;;;;;;3.97;0.88;;;;;;;24.61;100.00;102382.25;5406017;26;20692;-79
2024/04/13 10:34:26;;;;;;;3.25;1.17;;;;;;;25.09;100.00;102396.78;5402389;26;20268;-79
2024/04/13 10:36:58;;;;;;;2.53;0.93;;;;;;;24.89;100.00;102384.69;5361390;26;20717;-79
2024/04/13 10:39:25;;;;;;;2.05;0.90;;;;;;;24.82;100.00;102379.41;5393508;26;20303;-79
2024/04/13 10:41:53;;;;;;;3.72;1.20;;;;;;;24.53;100.00;102343.94;5406141;26;20272;-80
2024/04/13 10:44:27;;;;;;;2.28;0.60;;;;;;;25.28;100.00;102355.63;5363066;26;20264;-82
2024/04/13 10:46:54;;;;;;;5.35;2.72;;;;;;;25.14;100.00;102371.03;5393295;26;20355;-82
2024/04/13 10:49:21;;;;;;;2.53;1.00;;;;;;;24.86;100.00;102351.97;5388443;26;20359;-83
2024/04/13 10:51:48;;;;;;;3.13;1.65;;;;;;;24.56;100.00;102354.50;5381320;26;20350;-83
2024/04/13 10:54:16;;;;;;;3.08;1.25;;;;;;;24.52;100.00;102342.28;5386539;26;20265;-81
2024/04/13 10:56:44;;;;;;;3.20;1.20;;;;;;;24.62;100.00;102351.53;5385676;26;20296;-81
2024/04/13 10:59:11;;;;;;;1.50;1.20;;;;;;;24.64;100.00;102348.50;5383831;26;20583;-81
2024/04/13 11:01:42;;;;;;;3.05;1.65;;;;;;;24.01;100.00;102345.66;5387197;26;20300;-81
2024/04/13 11:04:13;;;;;;;3.10;1.80;;;;;;;24.47;100.00;102345.81;5387946;26;20723;-81
2024/04/13 11:06:41;;;;;;;3.92;1.75;;;;;;;24.30;100.00;102327.69;5385948;26;20555;-81
2024/04/13 11:09:09;;;;;;;2.40;1.85;;;;;;;24.16;100.00;102345.81;5378749;26;20391;-81
2024/04/13 11:11:36;;;;;;;3.85;2.33;;;;;;;23.24;100.00;102315.38;5380611;26;20365;-81
2024/04/13 11:14:03;;;;;;;3.20;2.85;;;;;;;23.04;100.00;102301.28;5384665;26;20312;-81
2024/04/13 11:16:31;;;;;;;5.82;3.05;;;;;;;23.19;100.00;102320.00;5391852;26;20323;-81
2024/04/13 11:18:58;;;;;;;5.18;2.70;;;;;;;23.52;100.00;102291.41;5386813;26;20453;-81
2024/04/13 11:21:26;;;;;;;4.57;2.60;;;;;;;23.32;100.00;102314.13;5380921;26;20296;-81